sensor_id;sensor_type;location;lat;lon;timestamp;P1;durP1;ratioP1;P2;durP2;ratioP2
42144;SDS011;27813;43.516;11.890;2024-02-21T00:03:29;2.85;;;1.92;;
42144;SDS011;27813;43.516;11.890;2024-02-21T00:07:33;2.87;;;1.80;;
42144;SDS011;27813;43.516;11.890;2024-02-21T00:11:37;3.03;;;1.80;;
42144;SDS011;27813;43.516;11.890;2024-02-21T00:15:42;2.85;;;1.80;;
42144;SDS011;27813;43.516;11.890;2024-02-21T00:19:49;3.20;;;1.88;;
42144;SDS011;27813;43.516;11.890;2024-02-21T00:23:54;2.50;;;1.70;;
42144;SDS011;27813;43.516;11.890;2024-02-21T00:27:58;3.50;;;1.83;;
42144;SDS011;27813;43.516;11.890;2024-02-21T00:32:02;2.63;;;1.90;;
42144;SDS011;27813;43.516;11.890;2024-02-21T00:36:06;2.58;;;1.60;;
42144;SDS011;27813;43.516;11.890;2024-02-21T00:40:11;3.35;;;1.90;;
42144;SDS011;27813;43.516;11.890;2024-02-21T00:44:15;2.77;;;1.60;;
42144;SDS011;27813;43.516;11.890;2024-02-21T00:48:19;2.90;;;1.60;;
42144;SDS011;27813;43.516;11.890;2024-02-21T00:52:26;4.65;;;1.92;;
42144;SDS011;27813;43.516;11.890;2024-02-21T00:56:31;4.22;;;1.98;;
42144;SDS011;27813;43.516;11.890;2024-02-21T01:00:35;3.90;;;2.20;;
42144;SDS011;27813;43.516;11.890;2024-02-21T01:04:39;6.07;;;2.55;;
42144;SDS011;27813;43.516;11.890;2024-02-21T01:08:43;4.60;;;2.47;;
42144;SDS011;27813;43.516;11.890;2024-02-21T01:12:48;4.32;;;2.33;;
42144;SDS011;27813;43.516;11.890;2024-02-21T01:16:52;3.97;;;2.25;;
42144;SDS011;27813;43.516;11.890;2024-02-21T01:20:58;3.75;;;2.22;;
42144;SDS011;27813;43.516;11.890;2024-02-21T01:25:04;4.15;;;2.47;;
42144;SDS011;27813;43.516;11.890;2024-02-21T01:29:08;4.72;;;2.53;;
42144;SDS011;27813;43.516;11.890;2024-02-21T01:33:12;3.03;;;2.17;;
42144;SDS011;27813;43.516;11.890;2024-02-21T01:37:19;4.40;;;2.23;;
42144;SDS011;27813;43.516;11.890;2024-02-21T01:41:25;3.03;;;2.05;;
42144;SDS011;27813;43.516;11.890;2024-02-21T01:45:29;2.93;;;2.10;;
42144;SDS011;27813;43.516;11.890;2024-02-21T01:49:33;3.78;;;2.13;;
42144;SDS011;27813;43.516;11.890;2024-02-21T01:53:38;2.78;;;2.40;;
42144;SDS011;27813;43.516;11.890;2024-02-21T01:57:47;4.63;;;2.50;;
42144;SDS011;27813;43.516;11.890;2024-02-21T02:01:51;3.50;;;1.90;;
42144;SDS011;27813;43.516;11.890;2024-02-21T02:05:56;3.30;;;1.73;;
42144;SDS011;27813;43.516;11.890;2024-02-21T02:10:01;3.53;;;2.03;;
42144;SDS011;27813;43.516;11.890;2024-02-21T02:14:07;3.97;;;1.92;;
42144;SDS011;27813;43.516;11.890;2024-02-21T02:18:12;2.33;;;1.70;;
42144;SDS011;27813;43.516;11.890;2024-02-21T02:22:19;2.60;;;1.85;;
42144;SDS011;27813;43.516;11.890;2024-02-21T02:26:31;2.70;;;1.70;;
42144;SDS011;27813;43.516;11.890;2024-02-21T02:30:35;5.53;;;2.63;;
42144;SDS011;27813;43.516;11.890;2024-02-21T02:34:40;3.10;;;2.10;;
42144;SDS011;27813;43.516;11.890;2024-02-21T02:38:48;4.03;;;1.90;;
42144;SDS011;27813;43.516;11.890;2024-02-21T02:42:52;2.83;;;1.77;;
42144;SDS011;27813;43.516;11.890;2024-02-21T02:46:58;23.08;;;8.15;;
42144;SDS011;27813;43.516;11.890;2024-02-21T02:51:02;8.32;;;4.05;;
42144;SDS011;27813;43.516;11.890;2024-02-21T02:55:07;7.70;;;4.20;;
42144;SDS011;27813;43.516;11.890;2024-02-21T02:59:12;5.53;;;2.50;;
42144;SDS011;27813;43.516;11.890;2024-02-21T03:03:15;4.43;;;2.53;;
42144;SDS011;27813;43.516;11.890;2024-02-21T03:07:20;3.20;;;2.23;;
42144;SDS011;27813;43.516;11.890;2024-02-21T03:11:24;3.83;;;2.10;;
42144;SDS011;27813;43.516;11.890;2024-02-21T03:15:33;2.55;;;1.83;;
42144;SDS011;27813;43.516;11.890;2024-02-21T03:23:42;2.72;;;1.70;;
42144;SDS011;27813;43.516;11.890;2024-02-21T03:27:46;2.57;;;1.60;;
42144;SDS011;27813;43.516;11.890;2024-02-21T03:31:50;2.30;;;1.50;;
42144;SDS011;27813;43.516;11.890;2024-02-21T03:35:55;4.03;;;2.03;;
42144;SDS011;27813;43.516;11.890;2024-02-21T03:40:02;3.00;;;1.88;;
42144;SDS011;27813;43.516;11.890;2024-02-21T03:44:10;2.80;;;1.90;;
42144;SDS011;27813;43.516;11.890;2024-02-21T03:48:15;2.35;;;1.60;;
42144;SDS011;27813;43.516;11.890;2024-02-21T03:52:19;2.50;;;1.45;;
42144;SDS011;27813;43.516;11.890;2024-02-21T03:56:25;3.35;;;1.40;;
42144;SDS011;27813;43.516;11.890;2024-02-21T04:00:29;3.27;;;1.77;;
42144;SDS011;27813;43.516;11.890;2024-02-21T04:04:36;2.97;;;1.77;;
42144;SDS011;27813;43.516;11.890;2024-02-21T04:08:41;2.58;;;1.70;;
42144;SDS011;27813;43.516;11.890;2024-02-21T04:12:46;2.43;;;1.60;;
42144;SDS011;27813;43.516;11.890;2024-02-21T04:16:50;2.80;;;1.83;;
42144;SDS011;27813;43.516;11.890;2024-02-21T04:20:55;2.15;;;1.27;;
42144;SDS011;27813;43.516;11.890;2024-02-21T04:24:59;3.13;;;1.80;;
42144;SDS011;27813;43.516;11.890;2024-02-21T04:29:04;3.80;;;1.63;;
42144;SDS011;27813;43.516;11.890;2024-02-21T04:33:09;2.35;;;1.80;;
42144;SDS011;27813;43.516;11.890;2024-02-21T04:37:13;3.73;;;2.00;;
42144;SDS011;27813;43.516;11.890;2024-02-21T04:41:18;3.92;;;2.50;;
42144;SDS011;27813;43.516;11.890;2024-02-21T04:45:22;3.42;;;1.90;;
42144;SDS011;27813;43.516;11.890;2024-02-21T04:49:26;2.70;;;1.90;;
42144;SDS011;27813;43.516;11.890;2024-02-21T04:53:30;4.60;;;2.95;;
42144;SDS011;27813;43.516;11.890;2024-02-21T04:57:38;4.82;;;2.70;;
42144;SDS011;27813;43.516;11.890;2024-02-21T05:01:42;3.77;;;2.10;;
42144;SDS011;27813;43.516;11.890;2024-02-21T05:05:46;2.42;;;1.58;;
42144;SDS011;27813;43.516;11.890;2024-02-21T05:09:53;2.22;;;1.65;;
42144;SDS011;27813;43.516;11.890;2024-02-21T05:13:57;3.93;;;3.13;;
42144;SDS011;27813;43.516;11.890;2024-02-21T05:18:02;3.47;;;1.88;;
42144;SDS011;27813;43.516;11.890;2024-02-21T05:22:09;5.30;;;2.67;;
42144;SDS011;27813;43.516;11.890;2024-02-21T05:26:19;2.33;;;1.67;;
42144;SDS011;27813;43.516;11.890;2024-02-21T05:30:25;2.22;;;1.55;;
42144;SDS011;27813;43.516;11.890;2024-02-21T05:34:29;2.13;;;1.67;;
42144;SDS011;27813;43.516;11.890;2024-02-21T05:38:34;3.00;;;1.70;;
42144;SDS011;27813;43.516;11.890;2024-02-21T05:42:39;3.13;;;2.15;;
42144;SDS011;27813;43.516;11.890;2024-02-21T05:46:43;2.37;;;1.60;;
42144;SDS011;27813;43.516;11.890;2024-02-21T05:50:48;1.92;;;1.73;;
42144;SDS011;27813;43.516;11.890;2024-02-21T05:54:53;2.97;;;2.00;;
42144;SDS011;27813;43.516;11.890;2024-02-21T05:58:59;3.95;;;2.80;;
42144;SDS011;27813;43.516;11.890;2024-02-21T06:03:05;4.43;;;2.83;;
42144;SDS011;27813;43.516;11.890;2024-02-21T06:07:10;6.03;;;3.95;;
42144;SDS011;27813;43.516;11.890;2024-02-21T06:11:14;3.67;;;2.10;;
42144;SDS011;27813;43.516;11.890;2024-02-21T06:15:19;2.85;;;1.77;;
42144;SDS011;27813;43.516;11.890;2024-02-21T06:19:25;4.50;;;2.00;;
42144;SDS011;27813;43.516;11.890;2024-02-21T06:23:31;3.45;;;2.22;;
42144;SDS011;27813;43.516;11.890;2024-02-21T06:27:35;4.28;;;2.80;;
42144;SDS011;27813;43.516;11.890;2024-02-21T06:31:40;4.82;;;2.55;;
42144;SDS011;27813;43.516;11.890;2024-02-21T06:35:44;4.10;;;2.67;;
42144;SDS011;27813;43.516;11.890;2024-02-21T06:39:50;3.70;;;2.60;;
42144;SDS011;27813;43.516;11.890;2024-02-21T06:43:54;4.25;;;2.40;;
42144;SDS011;27813;43.516;11.890;2024-02-21T06:47:59;10.77;;;3.97;;
42144;SDS011;27813;43.516;11.890;2024-02-21T06:52:05;5.60;;;3.40;;
42144;SDS011;27813;43.516;11.890;2024-02-21T06:56:09;4.45;;;3.10;;
42144;SDS011;27813;43.516;11.890;2024-02-21T07:04:27;4.93;;;2.75;;
42144;SDS011;27813;43.516;11.890;2024-02-21T07:08:32;5.28;;;3.47;;
42144;SDS011;27813;43.516;11.890;2024-02-21T07:12:38;11.27;;;6.07;;
42144;SDS011;27813;43.516;11.890;2024-02-21T07:16:48;6.72;;;3.78;;
42144;SDS011;27813;43.516;11.890;2024-02-21T07:20:52;11.03;;;4.20;;
42144;SDS011;27813;43.516;11.890;2024-02-21T07:24:56;4.85;;;3.10;;
42144;SDS011;27813;43.516;11.890;2024-02-21T07:29:00;5.33;;;3.00;;
42144;SDS011;27813;43.516;11.890;2024-02-21T07:33:07;5.10;;;3.40;;
42144;SDS011;27813;43.516;11.890;2024-02-21T07:37:11;6.65;;;4.60;;
42144;SDS011;27813;43.516;11.890;2024-02-21T07:41:16;7.38;;;4.30;;
42144;SDS011;27813;43.516;11.890;2024-02-21T07:45:23;10.60;;;5.90;;
42144;SDS011;27813;43.516;11.890;2024-02-21T07:49:30;9.25;;;5.78;;
42144;SDS011;27813;43.516;11.890;2024-02-21T07:53:34;7.68;;;4.10;;
42144;SDS011;27813;43.516;11.890;2024-02-21T07:57:38;6.07;;;4.40;;
42144;SDS011;27813;43.516;11.890;2024-02-21T08:01:43;7.35;;;4.03;;
42144;SDS011;27813;43.516;11.890;2024-02-21T08:05:49;6.05;;;3.38;;
42144;SDS011;27813;43.516;11.890;2024-02-21T08:09:54;7.15;;;4.00;;
42144;SDS011;27813;43.516;11.890;2024-02-21T08:13:59;7.05;;;4.00;;
42144;SDS011;27813;43.516;11.890;2024-02-21T08:18:04;5.47;;;3.53;;
42144;SDS011;27813;43.516;11.890;2024-02-21T08:22:10;5.80;;;3.92;;
42144;SDS011;27813;43.516;11.890;2024-02-21T08:26:14;7.65;;;3.63;;
42144;SDS011;27813;43.516;11.890;2024-02-21T08:30:20;7.38;;;3.72;;
42144;SDS011;27813;43.516;11.890;2024-02-21T08:38:29;6.85;;;3.85;;
42144;SDS011;27813;43.516;11.890;2024-02-21T08:42:36;6.45;;;4.20;;
42144;SDS011;27813;43.516;11.890;2024-02-21T08:46:42;6.03;;;4.07;;
42144;SDS011;27813;43.516;11.890;2024-02-21T08:50:47;5.22;;;3.63;;
42144;SDS011;27813;43.516;11.890;2024-02-21T08:54:52;6.15;;;3.92;;
42144;SDS011;27813;43.516;11.890;2024-02-21T08:58:57;6.35;;;3.40;;
42144;SDS011;27813;43.516;11.890;2024-02-21T09:03:02;6.45;;;3.65;;
42144;SDS011;27813;43.516;11.890;2024-02-21T09:07:08;4.85;;;3.30;;
42144;SDS011;27813;43.516;11.890;2024-02-21T09:11:14;6.13;;;4.05;;
42144;SDS011;27813;43.516;11.890;2024-02-21T09:15:18;6.90;;;3.95;;
42144;SDS011;27813;43.516;11.890;2024-02-21T09:19:23;7.65;;;5.00;;
42144;SDS011;27813;43.516;11.890;2024-02-21T09:23:31;5.03;;;3.60;;
42144;SDS011;27813;43.516;11.890;2024-02-21T09:27:36;6.05;;;3.75;;
42144;SDS011;27813;43.516;11.890;2024-02-21T09:31:41;5.28;;;3.65;;
42144;SDS011;27813;43.516;11.890;2024-02-21T09:35:45;5.50;;;3.60;;
42144;SDS011;27813;43.516;11.890;2024-02-21T09:39:50;8.63;;;3.25;;
42144;SDS011;27813;43.516;11.890;2024-02-21T09:43:57;8.18;;;4.93;;
42144;SDS011;27813;43.516;11.890;2024-02-21T09:52:18;6.82;;;3.05;;
42144;SDS011;27813;43.516;11.890;2024-02-21T09:56:24;5.75;;;3.50;;
42144;SDS011;27813;43.516;11.890;2024-02-21T10:00:29;7.85;;;4.72;;
42144;SDS011;27813;43.516;11.890;2024-02-21T10:08:38;11.88;;;4.65;;
42144;SDS011;27813;43.516;11.890;2024-02-21T10:12:51;10.18;;;6.05;;
42144;SDS011;27813;43.516;11.890;2024-02-21T10:16:58;31.45;;;16.75;;
42144;SDS011;27813;43.516;11.890;2024-02-21T10:25:13;11.63;;;6.93;;
42144;SDS011;27813;43.516;11.890;2024-02-21T10:29:19;8.85;;;4.82;;
42144;SDS011;27813;43.516;11.890;2024-02-21T10:37:31;13.13;;;7.38;;
42144;SDS011;27813;43.516;11.890;2024-02-21T10:41:35;5.70;;;3.95;;
42144;SDS011;27813;43.516;11.890;2024-02-21T10:45:41;7.80;;;4.30;;
42144;SDS011;27813;43.516;11.890;2024-02-21T10:49:46;5.55;;;3.33;;
42144;SDS011;27813;43.516;11.890;2024-02-21T10:53:57;4.95;;;2.90;;
42144;SDS011;27813;43.516;11.890;2024-02-21T10:58:19;11.88;;;7.45;;
42144;SDS011;27813;43.516;11.890;2024-02-21T11:02:31;5.65;;;3.00;;
42144;SDS011;27813;43.516;11.890;2024-02-21T11:06:39;25.20;;;9.33;;
42144;SDS011;27813;43.516;11.890;2024-02-21T11:10:45;11.52;;;4.53;;
42144;SDS011;27813;43.516;11.890;2024-02-21T11:14:51;10.50;;;4.75;;
42144;SDS011;27813;43.516;11.890;2024-02-21T11:23:29;8.50;;;4.03;;
42144;SDS011;27813;43.516;11.890;2024-02-21T11:31:39;5.20;;;2.60;;
42144;SDS011;27813;43.516;11.890;2024-02-21T11:35:46;3.72;;;2.15;;
42144;SDS011;27813;43.516;11.890;2024-02-21T11:43:56;6.63;;;2.97;;
42144;SDS011;27813;43.516;11.890;2024-02-21T11:52:08;29.63;;;13.23;;
42144;SDS011;27813;43.516;11.890;2024-02-21T11:56:13;20.05;;;7.88;;
42144;SDS011;27813;43.516;11.890;2024-02-21T12:00:19;4.95;;;2.63;;
42144;SDS011;27813;43.516;11.890;2024-02-21T12:04:29;2.80;;;1.67;;
42144;SDS011;27813;43.516;11.890;2024-02-21T12:08:43;3.38;;;1.52;;
42144;SDS011;27813;43.516;11.890;2024-02-21T12:12:49;3.83;;;1.48;;
42144;SDS011;27813;43.516;11.890;2024-02-21T12:17:04;3.78;;;1.70;;
42144;SDS011;27813;43.516;11.890;2024-02-21T12:21:10;3.67;;;2.10;;
42144;SDS011;27813;43.516;11.890;2024-02-21T12:25:17;2.45;;;1.48;;
42144;SDS011;27813;43.516;11.890;2024-02-21T12:29:24;2.13;;;1.40;;
42144;SDS011;27813;43.516;11.890;2024-02-21T12:33:30;1.70;;;1.17;;
42144;SDS011;27813;43.516;11.890;2024-02-21T12:37:37;2.92;;;1.05;;
42144;SDS011;27813;43.516;11.890;2024-02-21T12:41:46;1.33;;;0.77;;
42144;SDS011;27813;43.516;11.890;2024-02-21T12:45:52;1.70;;;1.10;;
42144;SDS011;27813;43.516;11.890;2024-02-21T12:49:57;1.27;;;0.77;;
42144;SDS011;27813;43.516;11.890;2024-02-21T12:54:03;1.33;;;0.80;;
42144;SDS011;27813;43.516;11.890;2024-02-21T12:58:09;0.73;;;0.55;;
42144;SDS011;27813;43.516;11.890;2024-02-21T13:02:13;1.17;;;0.70;;
42144;SDS011;27813;43.516;11.890;2024-02-21T13:06:19;1.02;;;0.63;;
42144;SDS011;27813;43.516;11.890;2024-02-21T13:10:25;0.98;;;0.65;;
42144;SDS011;27813;43.516;11.890;2024-02-21T13:14:30;1.10;;;0.70;;
42144;SDS011;27813;43.516;11.890;2024-02-21T13:18:37;1.40;;;0.80;;
42144;SDS011;27813;43.516;11.890;2024-02-21T13:22:46;1.40;;;0.80;;
42144;SDS011;27813;43.516;11.890;2024-02-21T13:30:54;1.40;;;0.80;;
42144;SDS011;27813;43.516;11.890;2024-02-21T13:34:59;1.35;;;0.80;;
42144;SDS011;27813;43.516;11.890;2024-02-21T13:39:05;1.60;;;1.00;;
42144;SDS011;27813;43.516;11.890;2024-02-21T13:43:11;1.40;;;0.80;;
42144;SDS011;27813;43.516;11.890;2024-02-21T13:47:16;1.17;;;0.80;;
42144;SDS011;27813;43.516;11.890;2024-02-21T13:55:24;1.38;;;0.88;;
42144;SDS011;27813;43.516;11.890;2024-02-21T13:59:34;1.65;;;0.90;;
42144;SDS011;27813;43.516;11.890;2024-02-21T14:03:39;1.63;;;1.00;;
42144;SDS011;27813;43.516;11.890;2024-02-21T14:07:45;1.48;;;1.08;;
42144;SDS011;27813;43.516;11.890;2024-02-21T14:11:51;1.27;;;0.88;;
42144;SDS011;27813;43.516;11.890;2024-02-21T14:15:57;3.42;;;1.15;;
42144;SDS011;27813;43.516;11.890;2024-02-21T14:20:02;2.38;;;1.50;;
42144;SDS011;27813;43.516;11.890;2024-02-21T14:24:08;1.95;;;1.33;;
42144;SDS011;27813;43.516;11.890;2024-02-21T14:28:15;2.63;;;2.05;;
42144;SDS011;27813;43.516;11.890;2024-02-21T14:32:24;4.80;;;2.67;;
42144;SDS011;27813;43.516;11.890;2024-02-21T14:36:28;6.63;;;3.72;;
42144;SDS011;27813;43.516;11.890;2024-02-21T14:44:39;2.38;;;1.38;;
42144;SDS011;27813;43.516;11.890;2024-02-21T14:48:45;3.53;;;1.60;;
42144;SDS011;27813;43.516;11.890;2024-02-21T14:56:54;3.00;;;1.90;;
42144;SDS011;27813;43.516;11.890;2024-02-21T15:01:01;2.80;;;1.55;;
42144;SDS011;27813;43.516;11.890;2024-02-21T15:05:05;9.15;;;2.90;;
42144;SDS011;27813;43.516;11.890;2024-02-21T15:09:13;10.48;;;3.75;;
42144;SDS011;27813;43.516;11.890;2024-02-21T15:13:18;5.00;;;3.00;;
42144;SDS011;27813;43.516;11.890;2024-02-21T15:17:24;5.05;;;2.95;;
42144;SDS011;27813;43.516;11.890;2024-02-21T15:21:30;3.67;;;2.22;;
42144;SDS011;27813;43.516;11.890;2024-02-21T15:25:35;4.35;;;1.90;;
42144;SDS011;27813;43.516;11.890;2024-02-21T15:29:40;7.03;;;3.88;;
42144;SDS011;27813;43.516;11.890;2024-02-21T15:33:45;4.32;;;2.40;;
42144;SDS011;27813;43.516;11.890;2024-02-21T15:37:51;3.75;;;2.30;;
42144;SDS011;27813;43.516;11.890;2024-02-21T15:46:03;10.68;;;4.18;;
42144;SDS011;27813;43.516;11.890;2024-02-21T15:50:09;6.88;;;3.47;;
42144;SDS011;27813;43.516;11.890;2024-02-21T15:54:19;5.72;;;3.38;;
42144;SDS011;27813;43.516;11.890;2024-02-21T15:58:28;5.55;;;2.72;;
42144;SDS011;27813;43.516;11.890;2024-02-21T16:02:35;9.15;;;3.72;;
42144;SDS011;27813;43.516;11.890;2024-02-21T16:06:39;6.55;;;3.50;;
42144;SDS011;27813;43.516;11.890;2024-02-21T16:10:44;7.15;;;4.15;;
42144;SDS011;27813;43.516;11.890;2024-02-21T16:14:49;7.13;;;3.58;;
42144;SDS011;27813;43.516;11.890;2024-02-21T16:18:53;5.07;;;2.92;;
42144;SDS011;27813;43.516;11.890;2024-02-21T16:22:57;8.90;;;5.53;;
42144;SDS011;27813;43.516;11.890;2024-02-21T16:27:06;20.90;;;8.77;;
42144;SDS011;27813;43.516;11.890;2024-02-21T16:31:14;21.52;;;10.23;;
42144;SDS011;27813;43.516;11.890;2024-02-21T16:39:25;57.50;;;20.77;;
42144;SDS011;27813;43.516;11.890;2024-02-21T16:43:30;75.03;;;25.80;;
42144;SDS011;27813;43.516;11.890;2024-02-21T16:47:37;29.27;;;15.38;;
42144;SDS011;27813;43.516;11.890;2024-02-21T16:51:42;26.25;;;12.45;;
42144;SDS011;27813;43.516;11.890;2024-02-21T16:55:48;19.48;;;9.40;;
42144;SDS011;27813;43.516;11.890;2024-02-21T16:59:52;79.20;;;37.50;;
42144;SDS011;27813;43.516;11.890;2024-02-21T17:03:58;53.28;;;27.27;;
42144;SDS011;27813;43.516;11.890;2024-02-21T17:08:03;22.45;;;13.02;;
42144;SDS011;27813;43.516;11.890;2024-02-21T17:12:13;21.70;;;11.13;;
42144;SDS011;27813;43.516;11.890;2024-02-21T17:20:23;36.08;;;21.17;;
42144;SDS011;27813;43.516;11.890;2024-02-21T17:28:35;27.52;;;14.25;;
42144;SDS011;27813;43.516;11.890;2024-02-21T17:32:43;35.58;;;20.52;;
42144;SDS011;27813;43.516;11.890;2024-02-21T17:36:48;22.45;;;10.63;;
42144;SDS011;27813;43.516;11.890;2024-02-21T17:40:53;18.13;;;8.90;;
42144;SDS011;27813;43.516;11.890;2024-02-21T17:44:57;14.25;;;8.07;;
42144;SDS011;27813;43.516;11.890;2024-02-21T17:49:01;14.75;;;8.52;;
42144;SDS011;27813;43.516;11.890;2024-02-21T17:53:08;16.35;;;9.70;;
42144;SDS011;27813;43.516;11.890;2024-02-21T17:57:14;19.13;;;11.35;;
42144;SDS011;27813;43.516;11.890;2024-02-21T18:01:19;16.05;;;9.05;;
42144;SDS011;27813;43.516;11.890;2024-02-21T18:05:23;27.58;;;12.25;;
42144;SDS011;27813;43.516;11.890;2024-02-21T18:09:32;13.73;;;7.50;;
42144;SDS011;27813;43.516;11.890;2024-02-21T18:13:37;17.45;;;8.60;;
42144;SDS011;27813;43.516;11.890;2024-02-21T18:21:46;10.80;;;6.00;;
42144;SDS011;27813;43.516;11.890;2024-02-21T18:25:50;9.55;;;5.90;;
42144;SDS011;27813;43.516;11.890;2024-02-21T18:29:57;11.65;;;6.00;;
42144;SDS011;27813;43.516;11.890;2024-02-21T18:34:02;11.07;;;6.88;;
42144;SDS011;27813;43.516;11.890;2024-02-21T18:38:07;9.00;;;5.07;;
42144;SDS011;27813;43.516;11.890;2024-02-21T18:42:12;11.48;;;5.85;;
42144;SDS011;27813;43.516;11.890;2024-02-21T18:46:16;12.55;;;7.63;;
42144;SDS011;27813;43.516;11.890;2024-02-21T18:50:20;14.70;;;8.85;;
42144;SDS011;27813;43.516;11.890;2024-02-21T18:54:28;25.85;;;11.13;;
42144;SDS011;27813;43.516;11.890;2024-02-21T18:58:33;21.60;;;12.05;;
42144;SDS011;27813;43.516;11.890;2024-02-21T19:02:37;16.40;;;9.98;;
42144;SDS011;27813;43.516;11.890;2024-02-21T19:06:42;6.50;;;4.28;;
42144;SDS011;27813;43.516;11.890;2024-02-21T19:10:47;9.88;;;5.63;;
42144;SDS011;27813;43.516;11.890;2024-02-21T19:14:56;10.88;;;6.45;;
42144;SDS011;27813;43.516;11.890;2024-02-21T19:23:04;7.90;;;5.60;;
42144;SDS011;27813;43.516;11.890;2024-02-21T19:27:10;17.80;;;9.95;;
42144;SDS011;27813;43.516;11.890;2024-02-21T19:31:15;7.72;;;4.72;;
42144;SDS011;27813;43.516;11.890;2024-02-21T19:35:20;10.35;;;4.85;;
42144;SDS011;27813;43.516;11.890;2024-02-21T19:39:25;10.95;;;5.53;;
42144;SDS011;27813;43.516;11.890;2024-02-21T19:43:31;12.20;;;7.05;;
42144;SDS011;27813;43.516;11.890;2024-02-21T19:51:42;11.05;;;6.30;;
42144;SDS011;27813;43.516;11.890;2024-02-21T19:55:47;9.27;;;5.28;;
42144;SDS011;27813;43.516;11.890;2024-02-21T19:59:56;12.23;;;6.85;;
42144;SDS011;27813;43.516;11.890;2024-02-21T20:04:14;10.40;;;5.32;;
42144;SDS011;27813;43.516;11.890;2024-02-21T20:08:18;8.20;;;5.03;;
42144;SDS011;27813;43.516;11.890;2024-02-21T20:12:26;15.00;;;8.57;;
42144;SDS011;27813;43.516;11.890;2024-02-21T20:16:32;11.40;;;6.15;;
42144;SDS011;27813;43.516;11.890;2024-02-21T20:20:38;9.02;;;5.30;;
42144;SDS011;27813;43.516;11.890;2024-02-21T20:24:44;8.90;;;4.38;;
42144;SDS011;27813;43.516;11.890;2024-02-21T20:28:49;10.77;;;5.65;;
42144;SDS011;27813;43.516;11.890;2024-02-21T20:33:32;10.20;;;5.57;;
42144;SDS011;27813;43.516;11.890;2024-02-21T20:37:37;10.00;;;5.55;;
42144;SDS011;27813;43.516;11.890;2024-02-21T20:49:52;6.22;;;4.38;;
42144;SDS011;27813;43.516;11.890;2024-02-21T20:54:00;10.07;;;5.97;;
42144;SDS011;27813;43.516;11.890;2024-02-21T20:58:10;13.45;;;6.93;;
42144;SDS011;27813;43.516;11.890;2024-02-21T21:02:23;13.88;;;7.82;;
42144;SDS011;27813;43.516;11.890;2024-02-21T21:06:29;14.27;;;8.15;;
42144;SDS011;27813;43.516;11.890;2024-02-21T21:10:41;18.80;;;11.73;;
42144;SDS011;27813;43.516;11.890;2024-02-21T21:15:23;10.38;;;6.97;;
42144;SDS011;27813;43.516;11.890;2024-02-21T21:19:33;7.32;;;4.72;;
42144;SDS011;27813;43.516;11.890;2024-02-21T21:23:45;11.07;;;6.13;;
42144;SDS011;27813;43.516;11.890;2024-02-21T21:27:51;14.05;;;7.60;;
42144;SDS011;27813;43.516;11.890;2024-02-21T21:31:59;8.18;;;5.47;;
42144;SDS011;27813;43.516;11.890;2024-02-21T21:36:04;17.08;;;6.15;;
42144;SDS011;27813;43.516;11.890;2024-02-21T21:40:12;7.97;;;5.20;;
42144;SDS011;27813;43.516;11.890;2024-02-21T21:44:18;9.10;;;4.53;;
42144;SDS011;27813;43.516;11.890;2024-02-21T21:48:25;11.05;;;5.53;;
42144;SDS011;27813;43.516;11.890;2024-02-21T21:52:32;13.73;;;7.85;;
42144;SDS011;27813;43.516;11.890;2024-02-21T21:56:37;30.55;;;13.50;;
42144;SDS011;27813;43.516;11.890;2024-02-21T22:00:42;13.63;;;6.18;;
42144;SDS011;27813;43.516;11.890;2024-02-21T22:04:52;12.05;;;5.63;;
42144;SDS011;27813;43.516;11.890;2024-02-21T22:08:58;19.00;;;9.07;;
42144;SDS011;27813;43.516;11.890;2024-02-21T22:13:02;11.43;;;7.25;;
42144;SDS011;27813;43.516;11.890;2024-02-21T22:17:09;12.52;;;6.13;;
42144;SDS011;27813;43.516;11.890;2024-02-21T22:21:16;19.05;;;8.68;;
42144;SDS011;27813;43.516;11.890;2024-02-21T22:25:21;12.02;;;5.90;;
42144;SDS011;27813;43.516;11.890;2024-02-21T22:29:25;9.18;;;5.53;;
42144;SDS011;27813;43.516;11.890;2024-02-21T22:33:34;10.27;;;5.75;;
42144;SDS011;27813;43.516;11.890;2024-02-21T22:41:43;11.05;;;6.55;;
42144;SDS011;27813;43.516;11.890;2024-02-21T22:45:48;14.55;;;7.43;;
42144;SDS011;27813;43.516;11.890;2024-02-21T22:49:52;7.72;;;4.57;;
42144;SDS011;27813;43.516;11.890;2024-02-21T22:53:58;13.93;;;7.47;;
42144;SDS011;27813;43.516;11.890;2024-02-21T23:02:09;9.10;;;5.10;;
42144;SDS011;27813;43.516;11.890;2024-02-21T23:06:13;13.57;;;7.10;;
42144;SDS011;27813;43.516;11.890;2024-02-21T23:10:25;10.75;;;5.45;;
42144;SDS011;27813;43.516;11.890;2024-02-21T23:14:30;9.82;;;5.30;;
42144;SDS011;27813;43.516;11.890;2024-02-21T23:18:34;10.10;;;5.53;;
42144;SDS011;27813;43.516;11.890;2024-02-21T23:22:41;7.93;;;4.47;;
42144;SDS011;27813;43.516;11.890;2024-02-21T23:26:46;14.68;;;6.95;;
42144;SDS011;27813;43.516;11.890;2024-02-21T23:30:51;12.77;;;5.95;;
42144;SDS011;27813;43.516;11.890;2024-02-21T23:34:58;20.10;;;8.88;;
42144;SDS011;27813;43.516;11.890;2024-02-21T23:39:10;11.32;;;6.22;;
42144;SDS011;27813;43.516;11.890;2024-02-21T23:43:15;8.88;;;4.97;;
42144;SDS011;27813;43.516;11.890;2024-02-21T23:47:20;8.25;;;4.78;;
42144;SDS011;27813;43.516;11.890;2024-02-21T23:51:27;12.13;;;6.15;;
42144;SDS011;27813;43.516;11.890;2024-02-21T23:55:33;11.98;;;7.55;;
42144;SDS011;27813;43.516;11.890;2024-02-21T23:59:37;16.00;;;7.93;;
